Time;durP1;ratioP1;P1;durP2;ratioP2;P2;SDS_P1;SDS_P2;PMS_P1;PMS_P2;Temp;Humidity;BMP_temperature;BMP_pressure;BME280_temperature;BME280_humidity;BME280_pressure;Samples;Min_cycle;Max_cycle;Signal;HPM_P1;HPM_P2
2021/08/30 00:00:12;;;;;;;;;;;;;;;19.89;49.42;95401.72;1048090;28;1379;-54
2021/08/30 00:00:42;;;;;;;;;;;;;;;19.89;49.25;95401.72;1048157;28;1185;-54
2021/08/30 00:01:13;;;;;;;;;;;;;;;19.90;49.26;95400.69;1048466;28;1307;-55
2021/08/30 00:01:43;;;;;;;;;;;;;;;19.89;49.41;95401.72;1048314;28;1373;-54
2021/08/30 00:02:14;;;;;;;;;;;;;;;19.89;49.45;95403.56;1048408;28;1367;-53
2021/08/30 00:02:44;;;;;;;;;;;;;;;19.89;49.50;95401.72;1048642;28;1190;-53
2021/08/30 00:03:14;;;;;;;;;;;;;;;19.89;49.44;95406.19;1046278;28;1000;-50
2021/08/30 00:03:45;;;;;;;;;;;;;;;19.90;49.31;95402.53;1047754;28;2198;-54
2021/08/30 00:04:15;;;;;;;;;;;;;;;19.89;49.34;95404.34;1048599;28;1244;-56
2021/08/30 00:04:45;;;;;;;;;;;;;;;19.89;49.45;95399.09;1048480;28;1280;-50
2021/08/30 00:05:15;;;;;;;;;;;;;;;19.90;49.04;95397.25;1048715;28;1209;-49
2021/08/30 00:05:46;;;;;;;;;;;;;;;19.89;49.41;95399.09;1048377;28;1087;-56
2021/08/30 00:06:16;;;;;;;;;;;;;;;19.89;49.33;95395.69;1048626;28;1326;-55
2021/08/30 00:06:48;;;;;;;;;;;;;;;19.89;49.42;95400.94;1046435;28;1603;-55
2021/08/30 00:07:19;;;;;;;;;;;;;;;19.89;49.27;95403.56;1048684;28;1145;-53
2021/08/30 00:07:49;;;;;;;;;;;;;;;19.89;49.32;95398.31;1048562;28;1264;-52
2021/08/30 00:08:19;;;;;;;;;;;;;;;19.89;49.15;95396.47;1048655;28;1158;-53
2021/08/30 00:08:49;;;;;;;;;;;;;;;19.88;49.33;95400.19;1047326;28;2056;-49
2021/08/30 00:09:20;;;;;;;;;;;;;;;19.89;49.23;95400.94;1048808;28;1212;-51
2021/08/30 00:09:50;;;;;;;;;;;;;;;19.89;49.02;95390.41;1043778;28;2099;-52
2021/08/30 00:10:21;;;;;;;;;;;;;;;19.90;49.27;95397.25;1047591;28;1151;-51
2021/08/30 00:10:51;;;;;;;;;;;;;;;19.89;49.25;95399.09;1048139;28;1257;-50
2021/08/30 00:11:21;;;;;;;;;;;;;;;19.89;49.04;95395.69;1048366;28;1198;-52
2021/08/30 00:11:52;;;;;;;;;;;;;;;19.90;49.34;95392.00;1048181;28;1202;-51
2021/08/30 00:12:22;;;;;;;;;;;;;;;19.89;49.33;95395.69;1048002;28;1343;-50
2021/08/30 00:12:52;;;;;;;;;;;;;;;19.89;49.31;95393.03;1048574;28;1300;-54
2021/08/30 00:13:23;;;;;;;;;;;;;;;19.89;49.23;95395.69;1048772;28;1263;-49
2021/08/30 00:13:53;;;;;;;;;;;;;;;19.90;49.22;95386.75;1048072;28;1457;-49
2021/08/30 00:14:23;;;;;;;;;;;;;;;19.90;49.47;95394.63;1046902;28;2061;-50
2021/08/30 00:14:55;;;;;;;;;;;;;;;19.89;49.29;95395.69;1048237;28;1301;-52
2021/08/30 00:15:25;;;;;;;;;;;;;;;19.89;49.39;95390.41;1044166;28;1909;-49
2021/08/30 00:15:57;;;;;;;;;;;;;;;19.89;49.38;95390.41;1048180;28;1270;-55
2021/08/30 00:16:27;;;;;;;;;;;;;;;19.89;49.42;95387.78;1047889;28;1230;-55
2021/08/30 00:16:58;;;;;;;;;;;;;;;19.90;48.81;95397.25;1048329;28;1073;-52
2021/08/30 00:17:28;;;;;;;;;;;;;;;19.89;49.34;95387.78;1048643;28;1181;-55
2021/08/30 00:17:59;;;;;;;;;;;;;;;19.89;49.42;95390.41;1048977;28;1259;-55
2021/08/30 00:18:29;;;;;;;;;;;;;;;19.89;49.26;95390.41;1049081;28;1224;-54
2021/08/30 00:18:59;;;;;;;;;;;;;;;19.88;49.45;95387.03;1048454;28;1830;-56
2021/08/30 00:19:33;;;;;;;;;;;;;;;19.89;49.44;95390.41;1047963;28;2048;-56
2021/08/30 00:20:04;;;;;;;;;;;;;;;19.89;49.32;95395.69;1049262;28;1056;-55
2021/08/30 00:20:34;;;;;;;;;;;;;;;19.89;49.27;95385.94;1048835;28;1336;-56
2021/08/30 00:21:04;;;;;;;;;;;;;;;19.89;49.09;95391.22;1049010;28;1344;-54
2021/08/30 00:21:35;;;;;;;;;;;;;;;19.89;49.41;95385.16;1046748;28;1193;-54
2021/08/30 00:22:05;;;;;;;;;;;;;;;19.88;49.38;95389.66;1049260;28;1260;-55
2021/08/30 00:22:36;;;;;;;;;;;;;;;19.89;49.24;95390.41;1049141;28;1271;-56
2021/08/30 00:23:06;;;;;;;;;;;;;;;19.89;49.40;95391.22;1049405;28;1140;-56
2021/08/30 00:23:36;;;;;;;;;;;;;;;19.88;49.28;95387.03;1049483;28;1171;-52
2021/08/30 00:24:07;;;;;;;;;;;;;;;19.88;49.35;95383.59;1043622;28;2009;-52
2021/08/30 00:24:37;;;;;;;;;;;;;;;19.88;49.28;95394.13;1046750;28;1094;-51
2021/08/30 00:25:07;;;;;;;;;;;;;;;19.88;49.24;95387.03;1049388;28;1146;-51
2021/08/30 00:25:38;;;;;;;;;;;;;;;19.88;49.42;95389.66;1049400;28;1165;-54
2021/08/30 00:26:08;;;;;;;;;;;;;;;19.89;49.24;95385.16;1047029;28;2001;-56
2021/08/30 00:26:38;;;;;;;;;;;;;;;19.89;49.39;95385.94;1046728;28;2052;-55
2021/08/30 00:27:09;;;;;;;;;;;;;;;19.88;49.33;95386.22;1049289;28;1186;-54
2021/08/30 00:27:39;;;;;;;;;;;;;;;19.89;49.22;95385.16;1049377;28;1079;-57
2021/08/30 00:28:09;;;;;;;;;;;;;;;19.89;49.27;95391.22;1047632;28;1708;-56
2021/08/30 00:28:40;;;;;;;;;;;;;;;19.89;49.19;95391.22;1049091;28;1276;-57
2021/08/30 00:29:10;;;;;;;;;;;;;;;19.89;49.17;95383.31;1048339;28;2049;-56
2021/08/30 00:29:41;;;;;;;;;;;;;;;19.89;49.41;95385.94;1049410;28;1229;-55
2021/08/30 00:30:11;;;;;;;;;;;;;;;19.89;49.12;95387.78;1049475;28;1149;-56
2021/08/30 00:30:41;;;;;;;;;;;;;;;19.89;49.10;95387.78;1049088;28;1153;-55
2021/08/30 00:31:12;;;;;;;;;;;;;;;19.89;49.25;95390.41;1049353;28;1094;-56
2021/08/30 00:31:42;;;;;;;;;;;;;;;19.89;49.29;95387.78;1049343;28;1161;-56
2021/08/30 00:32:13;;;;;;;;;;;;;;;19.89;49.25;95385.16;1049218;28;1291;-56
2021/08/30 00:32:43;;;;;;;;;;;;;;;19.88;49.23;95384.38;1049216;28;1284;-56
2021/08/30 00:33:14;;;;;;;;;;;;;;;19.88;49.45;95389.66;1049270;28;1180;-56
2021/08/30 00:33:44;;;;;;;;;;;;;;;19.88;49.26;95387.03;1049407;28;1217;-57
2021/08/30 00:34:14;;;;;;;;;;;;;;;19.88;49.32;95386.22;1047382;28;2052;-56
2021/08/30 00:34:45;;;;;;;;;;;;;;;19.88;49.39;95389.66;1044683;28;1150;-54
2021/08/30 00:35:15;;;;;;;;;;;;;;;19.88;49.32;95394.13;1041981;28;1973;-55
2021/08/30 00:35:45;;;;;;;;;;;;;;;19.88;49.24;95391.50;1044497;28;1214;-55
2021/08/30 00:36:15;;;;;;;;;;;;;;;19.88;49.47;95388.88;1049194;28;1389;-51
2021/08/30 00:36:46;;;;;;;;;;;;;;;19.87;49.21;95377.56;1049244;28;1276;-56
2021/08/30 00:37:16;;;;;;;;;;;;;;;19.87;49.46;95385.44;1048972;28;1086;-55
2021/08/30 00:37:48;;;;;;;;;;;;;;;19.88;49.50;95384.38;1049237;28;1268;-57
2021/08/30 00:38:18;;;;;;;;;;;;;;;19.88;49.36;95383.59;1049595;28;1264;-55
2021/08/30 00:38:49;;;;;;;;;;;;;;;19.87;49.33;95385.44;1048996;28;1213;-55
2021/08/30 00:39:22;;;;;;;;;;;;;;;19.89;49.13;95380.69;1048231;28;2193;-56
2021/08/30 00:39:52;;;;;;;;;;;;;;;19.89;49.46;95385.16;1047930;28;1646;-56
2021/08/30 00:40:23;;;;;;;;;;;;;;;19.88;49.32;95375.72;1047878;28;1134;-54
2021/08/30 00:40:53;;;;;;;;;;;;;;;19.87;49.05;95372.28;1049160;28;1205;-55
2021/08/30 00:41:24;;;;;;;;;;;;;;;19.88;49.43;95378.34;1048244;28;2237;-55
2021/08/30 00:41:55;;;;;;;;;;;;;;;19.87;49.43;95377.56;1049142;28;1314;-54
2021/08/30 00:42:26;;;;;;;;;;;;;;;19.88;49.36;95383.59;1049280;28;1284;-55
2021/08/30 00:42:56;;;;;;;;;;;;;;;19.88;49.40;95381.75;1047606;28;1197;-51
2021/08/30 00:43:27;;;;;;;;;;;;;;;19.88;49.39;95389.66;1049084;28;1279;-55
2021/08/30 00:43:57;;;;;;;;;;;;;;;19.87;49.48;95385.44;1049223;28;1186;-51
2021/08/30 00:44:28;;;;;;;;;;;;;;;19.88;49.24;95378.34;1048588;28;2112;-55
2021/08/30 00:45:00;;;;;;;;;;;;;;;19.88;49.42;95375.72;1049405;28;1057;-53
2021/08/30 00:45:31;;;;;;;;;;;;;;;19.87;49.48;95372.28;1048595;28;1377;-56
2021/08/30 00:46:02;;;;;;;;;;;;;;;19.88;49.42;95380.97;1048906;28;1139;-53
2021/08/30 00:46:32;;;;;;;;;;;;;;;19.89;49.10;95374.63;1044787;28;1281;-55
2021/08/30 00:47:02;;;;;;;;;;;;;;;19.88;49.13;95375.72;1044870;28;1158;-56
2021/08/30 00:47:33;;;;;;;;;;;;;;;19.88;49.33;95373.06;1043829;28;2057;-55
2021/08/30 00:48:03;;;;;;;;;;;;;;;19.87;49.36;95379.38;1041874;28;1741;-54
2021/08/30 00:48:34;;;;;;;;;;;;;;;19.88;49.62;95376.50;1044821;28;1285;-54
2021/08/30 00:49:04;;;;;;;;;;;;;;;19.88;49.18;95373.06;1044097;28;2024;-55
2021/08/30 00:49:34;;;;;;;;;;;;;;;19.87;49.29;95379.38;1048485;28;1303;-55
2021/08/30 00:50:05;;;;;;;;;;;;;;;19.86;49.37;95381.25;1049384;28;1147;-54
2021/08/30 00:50:35;;;;;;;;;;;;;;;19.87;49.46;95376.75;1049219;28;1212;-56
2021/08/30 00:51:06;;;;;;;;;;;;;;;19.88;49.39;95378.34;1049233;28;1004;-56
2021/08/30 00:51:36;;;;;;;;;;;;;;;19.87;49.48;95377.56;1048723;28;1280;-54
2021/08/30 00:52:06;;;;;;;;;;;;;;;19.87;49.56;95377.56;1048338;28;1302;-56
2021/08/30 00:52:37;;;;;;;;;;;;;;;19.87;49.36;95376.75;1048946;28;1226;-55
2021/08/30 00:53:07;;;;;;;;;;;;;;;19.87;49.29;95371.50;1049082;28;1069;-55
2021/08/30 00:53:38;;;;;;;;;;;;;;;19.88;49.31;95383.59;1048805;28;1154;-56
2021/08/30 00:54:08;;;;;;;;;;;;;;;19.87;49.40;95377.56;1048113;28;2120;-55
2021/08/30 00:54:39;;;;;;;;;;;;;;;19.88;49.47;95380.97;1048991;28;1142;-51
2021/08/30 00:55:09;;;;;;;;;;;;;;;19.87;49.48;95382.00;1048872;28;2005;-54
2021/08/30 00:55:40;;;;;;;;;;;;;;;19.87;49.32;95374.91;1049196;28;1185;-54
2021/08/30 00:56:10;;;;;;;;;;;;;;;19.87;49.51;95374.91;1047698;28;1678;-55
2021/08/30 00:56:40;;;;;;;;;;;;;;;19.88;49.49;95379.13;1049155;28;1216;-54
2021/08/30 00:57:11;;;;;;;;;;;;;;;19.87;49.47;95384.66;1049176;28;1232;-56
2021/08/30 00:57:41;;;;;;;;;;;;;;;19.87;49.34;95374.13;1049147;28;1079;-54
2021/08/30 00:58:12;;;;;;;;;;;;;;;19.88;49.35;95378.34;1049042;28;1256;-55
2021/08/30 00:58:42;;;;;;;;;;;;;;;19.87;49.10;95376.75;1048724;28;1347;-54
2021/08/30 00:59:12;;;;;;;;;;;;;;;19.87;49.19;95372.28;1048030;28;2008;-53
2021/08/30 00:59:43;;;;;;;;;;;;;;;19.87;49.27;95371.50;1044647;28;1186;-56
2021/08/30 01:00:14;;;;;;;;;;;;;;;19.88;49.13;95378.34;1040619;28;1457;-52
2021/08/30 01:00:44;;;;;;;;;;;;;;;19.87;49.26;95376.75;1044676;28;1253;-56
2021/08/30 01:01:14;;;;;;;;;;;;;;;19.87;49.36;95374.13;1044946;28;1316;-56
2021/08/30 01:01:45;;;;;;;;;;;;;;;19.87;49.44;95374.91;1048861;28;1296;-56
2021/08/30 01:02:15;;;;;;;;;;;;;;;19.87;49.43;95374.91;1048919;28;1327;-54
2021/08/30 01:02:45;;;;;;;;;;;;;;;19.88;49.20;95378.34;1049177;28;1221;-56
2021/08/30 01:03:16;;;;;;;;;;;;;;;19.87;49.19;95374.91;1049323;28;1178;-52
2021/08/30 01:03:46;;;;;;;;;;;;;;;19.87;49.38;95376.75;1048293;28;1675;-54
2021/08/30 01:04:16;;;;;;;;;;;;;;;19.87;49.41;95380.19;1047947;28;2030;-53
2021/08/30 01:04:47;;;;;;;;;;;;;;;19.87;49.38;95374.13;1044666;28;1257;-52
2021/08/30 01:05:17;;;;;;;;;;;;;;;19.88;49.26;95380.97;1044922;28;1218;-55
2021/08/30 01:05:49;;;;;;;;;;;;;;;19.87;49.23;95371.50;1043444;28;2155;-54
2021/08/30 01:06:22;;;;;;;;;;;;;;;19.86;49.29;95370.72;1040685;28;1325;-53
2021/08/30 01:06:58;;;;;;;;;;;;;;;19.87;49.57;95376.75;1044726;28;1262;-53
2021/08/30 01:07:49;;;;;;;;;;;;;;;19.86;49.44;95373.38;1044555;28;1186;-55
2021/08/30 01:08:20;;;;;;;;;;;;;;;19.86;49.24;95368.09;1046803;28;1380;-55
2021/08/30 01:08:56;;;;;;;;;;;;;;;19.87;49.42;95382.00;1048594;28;1233;-56
2021/08/30 01:09:33;;;;;;;;;;;;;;;19.86;49.43;95372.56;1047712;28;2039;-56
2021/08/30 01:10:13;;;;;;;;;;;;;;;19.86;49.45;95369.94;1053286;28;1826;-55
2021/08/30 01:10:46;;;;;;;;;;;;;;;19.86;49.50;95381.25;1057703;27;1262;-54
2021/08/30 01:11:17;;;;;;;;;;;;;;;19.87;49.46;95367.03;1055296;28;1369;-56
2021/08/30 01:11:51;;;;;;;;;;;;;;;19.87;49.24;95371.50;1050976;28;1363;-56
2021/08/30 01:12:43;;;;;;;;;;;;;;;19.87;49.51;95377.56;1044459;28;1225;-56
2021/08/30 01:13:35;;;;;;;;;;;;;;;19.87;49.51;95371.50;1048595;28;1237;-54
2021/08/30 01:14:17;;;;;;;;;;;;;;;19.87;49.20;95374.13;1042109;28;2127;-54
2021/08/30 01:14:53;;;;;;;;;;;;;;;19.87;49.26;95367.03;1044576;28;1265;-56
2021/08/30 01:15:26;;;;;;;;;;;;;;;19.86;49.11;95365.47;1044716;28;1910;-55
2021/08/30 01:15:58;;;;;;;;;;;;;;;19.87;49.43;95372.28;1047524;28;954;-55
2021/08/30 01:16:28;;;;;;;;;;;;;;;19.87;49.51;95367.03;1044729;28;1210;-54
2021/08/30 01:16:59;;;;;;;;;;;;;;;19.87;49.21;95371.50;1041080;28;1003;-54
2021/08/30 01:17:30;;;;;;;;;;;;;;;19.87;49.32;95372.28;1044543;28;1201;-54
2021/08/30 01:18:02;;;;;;;;;;;;;;;19.87;49.49;95368.88;1044126;28;1712;-54
2021/08/30 01:18:53;;;;;;;;;;;;;;;19.86;49.29;95364.69;1042864;28;1279;-52
2021/08/30 01:19:38;;;;;;;;;;;;;;;19.86;49.42;95368.09;1040998;28;2128;-55
2021/08/30 01:20:10;;;;;;;;;;;;;;;19.87;49.28;95368.88;1045515;28;1312;-54
2021/08/30 01:21:19;;;;;;;;;;;;;;;19.87;49.24;95361.75;1045157;28;1388;-55
2021/08/30 01:21:49;;;;;;;;;;;;;;;19.87;49.19;95363.59;1048266;28;1257;-55
2021/08/30 01:22:20;;;;;;;;;;;;;;;19.87;49.27;95360.97;1048798;28;1292;-52
2021/08/30 01:22:50;;;;;;;;;;;;;;;19.86;49.26;95362.06;1048505;28;1234;-55
2021/08/30 01:23:25;;;;;;;;;;;;;;;19.86;49.33;95369.94;1044129;28;2013;-56
2021/08/30 01:23:56;;;;;;;;;;;;;;;19.86;49.54;95362.84;1040740;28;1419;-56
2021/08/30 01:24:27;;;;;;;;;;;;;;;19.87;49.33;95366.25;1044650;28;1135;-55
2021/08/30 01:24:57;;;;;;;;;;;;;;;19.86;49.57;95362.06;1040628;28;1134;-56
2021/08/30 01:25:27;;;;;;;;;;;;;;;19.86;49.44;95359.41;1040561;28;1309;-54
2021/08/30 01:25:58;;;;;;;;;;;;;;;19.87;49.36;95363.59;1042738;28;1956;-53
2021/08/30 01:26:30;;;;;;;;;;;;;;;19.86;49.43;95362.84;1040580;28;1171;-56
2021/08/30 01:27:00;;;;;;;;;;;;;;;19.86;49.49;95359.41;1044541;28;1073;-56
2021/08/30 01:27:30;;;;;;;;;;;;;;;19.87;49.41;95363.59;1044697;28;1249;-54
2021/08/30 01:28:01;;;;;;;;;;;;;;;19.86;49.36;95362.06;1051600;28;1691;-52
2021/08/30 01:28:36;;;;;;;;;;;;;;;19.86;49.07;95360.22;1056016;28;1307;-55
2021/08/30 01:29:10;;;;;;;;;;;;;;;19.86;49.32;95369.94;1056528;28;1005;-55
2021/08/30 01:29:43;;;;;;;;;;;;;;;19.86;49.34;95364.69;1051667;28;1343;-55
2021/08/30 01:30:17;;;;;;;;;;;;;;;19.86;49.42;95359.41;1048777;28;1304;-55
2021/08/30 01:30:47;;;;;;;;;;;;;;;19.86;49.35;95368.09;1048731;28;1186;-56
2021/08/30 01:31:19;;;;;;;;;;;;;;;19.86;49.36;95359.41;1040414;28;1316;-54
2021/08/30 01:31:54;;;;;;;;;;;;;;;19.85;49.43;95361.25;1040451;28;1234;-56
2021/08/30 01:32:26;;;;;;;;;;;;;;;19.86;49.18;95362.06;1039614;28;1242;-56
2021/08/30 01:32:57;;;;;;;;;;;;;;;19.86;49.08;95362.84;1044696;28;2145;-56
2021/08/30 01:33:28;;;;;;;;;;;;;;;19.86;49.36;95354.94;1046344;28;2060;-56
2021/08/30 01:33:58;;;;;;;;;;;;;;;19.86;49.27;95357.59;1048058;28;2154;-56
2021/08/30 01:34:28;;;;;;;;;;;;;;;19.86;49.54;95362.84;1048680;28;1225;-54
2021/08/30 01:35:00;;;;;;;;;;;;;;;19.86;49.37;95359.41;1048887;28;1111;-56
2021/08/30 01:35:30;;;;;;;;;;;;;;;19.85;49.32;95358.63;1044102;28;1975;-53
2021/08/30 01:36:01;;;;;;;;;;;;;;;19.86;49.29;95359.41;1044751;28;1057;-55
2021/08/30 01:36:31;;;;;;;;;;;;;;;19.86;49.42;95365.47;1044625;28;1305;-56
2021/08/30 01:37:01;;;;;;;;;;;;;;;19.85;49.40;95357.84;1044754;28;1058;-54
2021/08/30 01:37:32;;;;;;;;;;;;;;;19.86;49.41;95362.06;1048553;28;1169;-56
2021/08/30 01:38:05;;;;;;;;;;;;;;;19.86;49.23;95354.16;1044716;28;1458;-56
2021/08/30 01:38:39;;;;;;;;;;;;;;;19.86;49.50;95364.69;1043953;28;2019;-55
2021/08/30 01:39:09;;;;;;;;;;;;;;;19.87;49.35;95350.44;1044512;28;1140;-56
2021/08/30 01:39:40;;;;;;;;;;;;;;;19.87;49.14;95355.72;1045349;28;1190;-54
2021/08/30 01:40:11;;;;;;;;;;;;;;;19.86;49.49;95354.16;1048119;28;1822;-56
2021/08/30 01:40:42;;;;;;;;;;;;;;;19.86;49.32;95356.78;1048959;28;1243;-56
2021/08/30 01:41:15;;;;;;;;;;;;;;;19.85;49.45;95353.38;1047574;28;1723;-55
2021/08/30 01:41:46;;;;;;;;;;;;;;;19.86;49.22;95356.78;1048530;28;1249;-56
2021/08/30 01:42:16;;;;;;;;;;;;;;;19.85;49.35;95356.00;1048472;28;1611;-56
2021/08/30 01:42:47;;;;;;;;;;;;;;;19.86;49.11;95360.22;1048724;28;1296;-56
2021/08/30 01:43:17;;;;;;;;;;;;;;;19.85;49.41;95356.00;1048967;28;1311;-54
2021/08/30 01:43:47;;;;;;;;;;;;;;;19.85;49.60;95358.63;1047633;28;2093;-56
2021/08/30 01:44:18;;;;;;;;;;;;;;;19.87;49.29;95363.59;1044824;28;1331;-56
2021/08/30 01:44:48;;;;;;;;;;;;;;;19.86;49.44;95359.41;1048816;28;1198;-53
2021/08/30 01:45:20;;;;;;;;;;;;;;;19.86;49.17;95357.59;1048773;28;1338;-54
2021/08/30 01:45:51;;;;;;;;;;;;;;;19.86;49.21;95359.41;1048506;28;1162;-54
2021/08/30 01:46:21;;;;;;;;;;;;;;;19.85;49.18;95357.84;1044470;28;1697;-52
2021/08/30 01:46:52;;;;;;;;;;;;;;;19.86;49.22;95354.16;1044485;28;1186;-56
2021/08/30 01:47:22;;;;;;;;;;;;;;;19.85;49.23;95357.84;1048597;28;1221;-56
2021/08/30 01:47:53;;;;;;;;;;;;;;;19.85;49.34;95356.00;1044608;28;1265;-55
2021/08/30 01:48:24;;;;;;;;;;;;;;;19.85;49.38;95358.63;1050878;28;1256;-54
2021/08/30 01:48:54;;;;;;;;;;;;;;;19.85;49.45;95357.84;1051671;28;2157;-51
2021/08/30 01:49:25;;;;;;;;;;;;;;;19.85;49.35;95355.22;1045111;28;1242;-52
2021/08/30 01:50:02;;;;;;;;;;;;;;;19.85;49.42;95352.56;1047764;28;1580;-54
2021/08/30 01:50:32;;;;;;;;;;;;;;;19.85;49.51;95358.63;1048581;28;1330;-51
2021/08/30 01:51:03;;;;;;;;;;;;;;;19.85;49.32;95356.00;1045696;28;1208;-55
2021/08/30 01:51:34;;;;;;;;;;;;;;;19.85;49.37;95363.09;1044596;28;1298;-50
2021/08/30 01:52:04;;;;;;;;;;;;;;;19.85;49.45;95358.63;1043251;28;1274;-53
2021/08/30 01:52:36;;;;;;;;;;;;;;;19.85;49.52;95363.09;1048853;28;1257;-52
2021/08/30 01:53:07;;;;;;;;;;;;;;;19.86;49.30;95362.06;1053346;28;1088;-52
2021/08/30 01:53:37;;;;;;;;;;;;;;;19.84;49.53;95354.44;1056942;28;1114;-54
2021/08/30 01:54:07;;;;;;;;;;;;;;;19.85;49.44;95360.47;1051707;28;2067;-52
2021/08/30 01:54:39;;;;;;;;;;;;;;;19.85;49.36;95360.47;1045762;28;1903;-52
2021/08/30 01:55:21;;;;;;;;;;;;;;;19.86;49.30;95356.78;1047837;28;2142;-54
2021/08/30 01:55:56;;;;;;;;;;;;;;;19.85;49.35;95358.63;1042078;28;1348;-52
2021/08/30 01:56:28;;;;;;;;;;;;;;;19.86;49.36;95359.41;1040215;28;1186;-52
2021/08/30 01:56:58;;;;;;;;;;;;;;;19.86;49.37;95354.16;1036286;28;1148;-50
2021/08/30 01:57:29;;;;;;;;;;;;;;;19.85;49.35;95357.84;1035426;28;1236;-52
2021/08/30 02:00:50;;;;;;;;;;;;;;;19.84;49.30;95357.06;1048462;28;1137;-52
2021/08/30 02:01:20;;;;;;;;;;;;;;;19.84;49.31;95362.34;1046571;28;1214;-52
2021/08/30 02:01:50;;;;;;;;;;;;;;;19.84;49.34;95354.44;1043677;28;2115;-50
2021/08/30 02:02:21;;;;;;;;;;;;;;;19.85;49.06;95357.84;1035532;28;2048;-52
2021/08/30 02:02:51;;;;;;;;;;;;;;;19.84;49.45;95354.44;1037677;28;1168;-52
2021/08/30 02:03:21;;;;;;;;;;;;;;;19.84;49.35;95353.66;1040453;28;1242;-55
2021/08/30 02:03:52;;;;;;;;;;;;;;;19.85;49.51;95355.22;1040311;28;1502;-53
2021/08/30 02:04:22;;;;;;;;;;;;;;;19.86;49.29;95356.78;1048756;28;1252;-54
2021/08/30 02:04:52;;;;;;;;;;;;;;;19.86;49.43;95354.16;1047317;28;2054;-52
2021/08/30 02:05:23;;;;;;;;;;;;;;;19.86;49.23;95354.16;1048810;28;1280;-52
2021/08/30 02:05:54;;;;;;;;;;;;;;;19.84;49.45;95354.44;1044335;28;1384;-51
2021/08/30 02:06:24;;;;;;;;;;;;;;;19.85;49.42;95357.84;1044592;28;1312;-53
2021/08/30 02:06:54;;;;;;;;;;;;;;;19.85;49.45;95349.94;1044171;28;1159;-54
2021/08/30 02:07:25;;;;;;;;;;;;;;;19.85;49.25;95347.31;1040625;28;1230;-50
2021/08/30 02:07:55;;;;;;;;;;;;;;;19.85;49.49;95345.47;1048521;28;1170;-50
2021/08/30 02:08:26;;;;;;;;;;;;;;;19.85;49.54;95347.31;1043180;28;1104;-50
2021/08/30 02:08:58;;;;;;;;;;;;;;;19.84;49.46;95351.03;1044700;28;1026;-51
2021/08/30 02:09:28;;;;;;;;;;;;;;;19.85;49.51;95347.31;1052842;28;1292;-55
2021/08/30 02:10:00;;;;;;;;;;;;;;;19.85;49.45;95355.22;1049437;28;2167;-54
2021/08/30 02:10:30;;;;;;;;;;;;;;;19.84;49.43;95346.56;1056138;28;1217;-53
2021/08/30 02:11:01;;;;;;;;;;;;;;;19.83;49.54;95350.22;1056441;28;1080;-52
2021/08/30 02:11:35;;;;;;;;;;;;;;;19.84;49.57;95343.94;1056839;28;1295;-53
2021/08/30 02:12:06;;;;;;;;;;;;;;;19.85;49.58;95349.94;1056817;28;1311;-54
2021/08/30 02:12:36;;;;;;;;;;;;;;;19.83;49.46;95344.19;1057097;28;1253;-54
2021/08/30 02:13:06;;;;;;;;;;;;;;;19.84;49.54;95351.03;1055525;28;1151;-54
2021/08/30 02:13:37;;;;;;;;;;;;;;;19.84;49.41;95348.41;1049081;28;1055;-51
2021/08/30 02:14:07;;;;;;;;;;;;;;;19.84;49.49;95343.94;1047846;28;2072;-50
2021/08/30 02:14:37;;;;;;;;;;;;;;;19.84;49.62;95341.28;1047988;28;2087;-54
2021/08/30 02:15:08;;;;;;;;;;;;;;;19.84;49.43;95348.41;1047804;28;2080;-50
2021/08/30 02:15:38;;;;;;;;;;;;;;;19.84;49.52;95346.56;1049032;28;1150;-49
2021/08/30 02:16:09;;;;;;;;;;;;;;;19.83;49.50;95344.97;1048824;28;1127;-51
2021/08/30 02:16:39;;;;;;;;;;;;;;;19.84;49.36;95345.75;1048868;28;1205;-52
2021/08/30 02:17:10;;;;;;;;;;;;;;;19.84;49.49;95335.25;1048272;28;1171;-55
2021/08/30 02:17:41;;;;;;;;;;;;;;;19.84;49.33;95345.75;1047767;28;1897;-53
2021/08/30 02:18:11;;;;;;;;;;;;;;;19.83;49.30;95338.91;1051458;28;1248;-51
2021/08/30 02:18:45;;;;;;;;;;;;;;;19.84;49.36;95340.50;1051472;28;1595;-51
2021/08/30 02:19:25;;;;;;;;;;;;;;;19.83;49.31;95338.91;1051511;28;1225;-51
2021/08/30 02:19:55;;;;;;;;;;;;;;;19.84;49.45;95337.88;1051357;28;2081;-52
2021/08/30 02:20:26;;;;;;;;;;;;;;;19.84;49.31;95341.28;1049031;28;1217;-52
2021/08/30 02:21:16;;;;;;;;;;;;;;;19.84;49.52;95340.50;1048772;28;1367;-56
2021/08/30 02:21:50;;;;;;;;;;;;;;;19.84;49.30;95340.50;1047355;28;1178;-52
2021/08/30 02:22:23;;;;;;;;;;;;;;;19.83;49.51;95337.09;1048602;28;1244;-55
2021/08/30 02:22:53;;;;;;;;;;;;;;;19.83;49.45;95334.44;1044367;28;1346;-54
2021/08/30 02:23:25;;;;;;;;;;;;;;;19.83;49.35;95338.91;1044334;28;1229;-51
2021/08/30 02:24:01;;;;;;;;;;;;;;;19.84;49.46;95343.94;1040296;28;1156;-52
2021/08/30 02:24:45;;;;;;;;;;;;;;;19.84;49.49;95332.63;1042249;28;1187;-54
2021/08/30 02:25:18;;;;;;;;;;;;;;;19.83;49.57;95334.44;1047913;28;2030;-55
2021/08/30 02:25:48;;;;;;;;;;;;;;;19.83;49.61;95334.44;1050219;28;1107;-55
2021/08/30 02:26:20;;;;;;;;;;;;;;;19.84;49.49;95332.63;1048748;28;1234;-53
2021/08/30 02:26:51;;;;;;;;;;;;;;;19.83;49.41;95339.72;1047853;28;1100;-51
2021/08/30 02:27:22;;;;;;;;;;;;;;;19.84;49.34;95335.25;1044719;28;1229;-54
2021/08/30 02:27:58;;;;;;;;;;;;;;;19.84;49.51;95340.50;1052422;28;1735;-53
2021/08/30 02:28:29;;;;;;;;;;;;;;;19.83;49.45;95333.66;1056267;28;1162;-50
2021/08/30 02:28:59;;;;;;;;;;;;;;;19.83;49.39;95344.19;1058092;27;1067;-49
2021/08/30 02:29:33;;;;;;;;;;;;;;;19.83;49.54;95338.91;1057617;27;1374;-51
2021/08/30 02:30:06;;;;;;;;;;;;;;;19.84;49.45;95332.63;1050494;28;2054;-52
2021/08/30 02:30:36;;;;;;;;;;;;;;;19.83;49.36;95337.09;1054496;28;1398;-54
2021/08/30 02:31:07;;;;;;;;;;;;;;;19.83;49.50;95334.44;1048616;28;1081;-52
2021/08/30 02:31:37;;;;;;;;;;;;;;;19.83;49.46;95337.09;1041598;28;1116;-53
2021/08/30 02:32:07;;;;;;;;;;;;;;;19.84;49.20;95329.97;1048269;28;1272;-54
2021/08/30 02:32:38;;;;;;;;;;;;;;;19.84;49.42;95335.25;1048580;28;1174;-51
2021/08/30 02:33:09;;;;;;;;;;;;;;;19.83;49.57;95333.66;1053106;28;1135;-53
2021/08/30 02:33:39;;;;;;;;;;;;;;;19.83;49.47;95323.13;1057670;27;1547;-50
2021/08/30 02:34:10;;;;;;;;;;;;;;;19.82;49.38;95332.09;1051183;28;1135;-49
2021/08/30 02:34:41;;;;;;;;;;;;;;;19.82;49.47;95338.16;1050048;28;1367;-52
2021/08/30 02:35:13;;;;;;;;;;;;;;;19.82;49.51;95332.09;1043708;28;2073;-52
2021/08/30 02:35:43;;;;;;;;;;;;;;;19.84;49.53;95332.63;1044499;28;1112;-51
2021/08/30 02:36:14;;;;;;;;;;;;;;;19.83;49.29;95334.44;1048003;28;1989;-50
2021/08/30 02:36:44;;;;;;;;;;;;;;;19.83;49.53;95329.19;1040518;28;1230;-55
2021/08/30 02:37:14;;;;;;;;;;;;;;;19.84;49.34;95332.63;1039625;28;1198;-53
2021/08/30 02:37:45;;;;;;;;;;;;;;;19.82;49.56;95332.91;1048531;28;1214;-53
2021/08/30 02:38:15;;;;;;;;;;;;;;;19.82;49.22;95330.28;1044366;28;1233;-50
2021/08/30 02:38:45;;;;;;;;;;;;;;;19.83;49.42;95328.41;1044282;28;1164;-51
2021/08/30 02:39:16;;;;;;;;;;;;;;;19.83;49.35;95331.81;1048429;28;1233;-52
2021/08/30 02:39:49;;;;;;;;;;;;;;;19.83;49.52;95333.66;1043092;28;2154;-54
2021/08/30 02:40:21;;;;;;;;;;;;;;;19.83;49.45;95333.66;1043296;28;2170;-52
2021/08/30 02:40:51;;;;;;;;;;;;;;;19.82;49.49;95327.63;1044940;28;1171;-53
2021/08/30 02:41:22;;;;;;;;;;;;;;;19.83;49.37;95331.03;1048699;28;1201;-50
2021/08/30 02:41:52;;;;;;;;;;;;;;;19.83;49.51;95328.41;1039973;28;1306;-51
2021/08/30 02:42:22;;;;;;;;;;;;;;;19.83;49.35;95331.81;1036128;28;1323;-53
2021/08/30 02:42:53;;;;;;;;;;;;;;;19.82;49.31;95338.16;1036190;28;1222;-53
2021/08/30 02:43:23;;;;;;;;;;;;;;;19.82;49.35;95332.09;1032218;28;1353;-52
2021/08/30 02:43:54;;;;;;;;;;;;;;;19.82;49.45;95329.47;1045151;28;1136;-52
2021/08/30 02:44:24;;;;;;;;;;;;;;;19.82;49.29;95326.84;1040225;28;1203;-52
2021/08/30 02:44:54;;;;;;;;;;;;;;;19.83;49.16;95328.41;1039745;28;2195;-49
2021/08/30 02:45:25;;;;;;;;;;;;;;;19.83;49.32;95328.41;1040847;28;1767;-53
2021/08/30 02:45:55;;;;;;;;;;;;;;;19.83;49.49;95323.13;1040084;28;1133;-51
2021/08/30 02:46:26;;;;;;;;;;;;;;;19.81;49.36;95326.06;1040262;28;1202;-50
2021/08/30 02:46:56;;;;;;;;;;;;;;;19.83;49.50;95328.41;1040104;28;1333;-52
2021/08/30 02:47:27;;;;;;;;;;;;;;;19.83;49.51;95328.41;1047536;28;2170;-55
2021/08/30 02:47:57;;;;;;;;;;;;;;;19.84;49.42;95332.63;1048585;28;2048;-51
2021/08/30 02:48:28;;;;;;;;;;;;;;;19.82;49.44;95327.63;1052954;28;1684;-52
2021/08/30 02:48:58;;;;;;;;;;;;;;;19.82;49.45;95327.63;1052579;28;1115;-51
2021/08/30 02:49:29;;;;;;;;;;;;;;;19.82;49.59;95327.63;1048345;28;1229;-54